createdAt,value
2022-08-17T00:03:49.069Z,10.14
2022-08-17T00:18:57.617Z,9.29
2022-08-17T00:33:48.615Z,9.48
2022-08-17T00:48:48.643Z,9.84
2022-08-17T01:03:49.105Z,10.07
2022-08-17T01:18:48.729Z,9.47
2022-08-17T01:33:49.260Z,9.55
2022-08-17T01:48:48.529Z,9.99
2022-08-17T02:03:53.564Z,9.28
2022-08-17T02:18:48.771Z,9.65
2022-08-17T02:33:56.926Z,9.82
2022-08-17T02:48:53.829Z,9.21
2022-08-17T03:03:48.643Z,9.46
2022-08-17T03:18:48.514Z,9.28
2022-08-17T03:33:48.865Z,10.92
2022-08-17T03:48:48.805Z,13.24
2022-08-17T04:03:48.597Z,10.3
2022-08-17T04:18:48.507Z,10.32
2022-08-17T04:33:48.448Z,13.53
2022-08-17T04:48:48.436Z,9.73
2022-08-17T05:03:49.173Z,9.53
2022-08-17T05:18:49.105Z,8.75
2022-08-17T05:33:48.846Z,9.53
2022-08-17T05:48:48.470Z,8.87
2022-08-17T06:03:48.873Z,8.63
2022-08-17T06:18:49.218Z,8.32
2022-08-17T06:33:48.500Z,8.33
2022-08-17T06:48:48.670Z,7.8
2022-08-17T07:03:49.194Z,7.97
2022-08-17T07:18:49.031Z,7.59
2022-08-17T07:33:48.847Z,7.57
2022-08-17T07:48:49.131Z,7.64
2022-08-17T08:03:49.410Z,7.36
2022-08-17T08:18:53.972Z,7.76
2022-08-17T08:33:48.406Z,7.57
2022-08-17T08:48:53.592Z,7.52
2022-08-17T09:03:52.977Z,8.34
2022-08-17T09:19:02.106Z,7.79
2022-08-17T09:33:48.825Z,8.33
2022-08-17T09:48:48.983Z,8.14
2022-08-17T10:03:54.028Z,8.49
2022-08-17T10:18:49.225Z,7.78
2022-08-17T10:33:48.735Z,8.07
2022-08-17T10:48:49.029Z,8.38
2022-08-17T11:03:49.027Z,9.01
2022-08-17T11:18:48.623Z,9.44
2022-08-17T11:33:49.170Z,10.17
2022-08-17T11:48:48.866Z,10.31
2022-08-17T12:03:54.588Z,10.28
2022-08-17T12:18:49.271Z,11.14
2022-08-17T12:33:49.020Z,11.29
2022-08-17T12:48:58.742Z,11.87
2022-08-17T13:03:49.060Z,12.07
2022-08-17T13:18:49.275Z,12.25
2022-08-17T13:33:48.416Z,11.99
2022-08-17T13:48:48.993Z,12.73
2022-08-17T14:03:48.425Z,12.56
2022-08-17T14:18:55.974Z,12.93
2022-08-17T14:33:48.875Z,13.01
2022-08-17T14:48:50.800Z,13.54
2022-08-17T15:03:48.820Z,13.78
2022-08-17T15:18:48.713Z,13.46
2022-08-17T15:33:48.763Z,14.25
2022-08-17T15:48:48.787Z,14.85
2022-08-17T16:04:01.665Z,14.31
2022-08-17T16:18:53.778Z,15.41
2022-08-17T16:33:58.529Z,15.47
2022-08-17T16:48:48.793Z,14.18
2022-08-17T17:03:48.858Z,12.29
2022-08-17T17:18:48.890Z,12.16
2022-08-17T17:33:48.489Z,13.74
2022-08-17T17:48:48.664Z,13.17
2022-08-17T18:03:48.717Z,12.93
2022-08-17T18:18:48.781Z,13.51
2022-08-17T18:33:48.941Z,13.05
2022-08-17T18:48:49.179Z,12.9
2022-08-17T19:03:48.566Z,12.89
2022-08-17T19:18:48.844Z,13.39
2022-08-17T19:33:48.781Z,12.65
2022-08-17T19:48:49.083Z,13.6
2022-08-17T20:03:49.021Z,13.02
2022-08-17T20:18:49.071Z,15.01
2022-08-17T20:33:48.785Z,15.55
2022-08-17T20:48:48.936Z,15.72
2022-08-17T21:03:50.783Z,14.09
2022-08-17T21:18:48.666Z,15.03
2022-08-17T21:33:49.235Z,15.15
2022-08-17T21:48:48.927Z,14.94
2022-08-17T22:03:48.603Z,15.68
2022-08-17T22:18:48.398Z,13.38
2022-08-17T22:33:48.688Z,9.24
2022-08-17T22:48:48.383Z,8.86
2022-08-17T23:03:49.163Z,8.71
2022-08-17T23:18:49.180Z,7.61
2022-08-17T23:33:49.051Z,7.43
2022-08-17T23:48:49.022Z,7.32
